sensor_id;sensor_type;location;lat;lon;timestamp;P1;durP1;ratioP1;P2;durP2;ratioP2
3006;SDS011;1513;47.650;10.720;2022-12-20T00:02:16;5.17;;;3.17;;
3006;SDS011;1513;47.650;10.720;2022-12-20T00:04:42;4.70;;;2.27;;
3006;SDS011;1513;47.650;10.720;2022-12-20T00:07:08;3.70;;;2.60;;
3006;SDS011;1513;47.650;10.720;2022-12-20T00:09:34;3.37;;;2.70;;
3006;SDS011;1513;47.650;10.720;2022-12-20T00:12:00;2.73;;;1.90;;
3006;SDS011;1513;47.650;10.720;2022-12-20T00:14:26;2.00;;;1.80;;
3006;SDS011;1513;47.650;10.720;2022-12-20T00:16:51;4.00;;;2.27;;
3006;SDS011;1513;47.650;10.720;2022-12-20T00:19:17;3.77;;;2.30;;
3006;SDS011;1513;47.650;10.720;2022-12-20T00:21:43;1.70;;;1.60;;
3006;SDS011;1513;47.650;10.720;2022-12-20T00:24:09;1.60;;;1.50;;
3006;SDS011;1513;47.650;10.720;2022-12-20T00:26:35;3.47;;;2.87;;
3006;SDS011;1513;47.650;10.720;2022-12-20T00:29:02;4.17;;;2.30;;
3006;SDS011;1513;47.650;10.720;2022-12-20T00:31:29;4.07;;;2.67;;
3006;SDS011;1513;47.650;10.720;2022-12-20T00:33:56;6.33;;;3.10;;
3006;SDS011;1513;47.650;10.720;2022-12-20T00:36:25;3.10;;;2.47;;
3006;SDS011;1513;47.650;10.720;2022-12-20T00:38:53;3.73;;;2.13;;
3006;SDS011;1513;47.650;10.720;2022-12-20T00:41:22;3.03;;;2.27;;
3006;SDS011;1513;47.650;10.720;2022-12-20T00:43:52;2.57;;;2.00;;
3006;SDS011;1513;47.650;10.720;2022-12-20T00:46:19;3.77;;;2.60;;
3006;SDS011;1513;47.650;10.720;2022-12-20T00:48:47;4.60;;;2.40;;
3006;SDS011;1513;47.650;10.720;2022-12-20T00:51:14;3.93;;;2.33;;
3006;SDS011;1513;47.650;10.720;2022-12-20T00:53:44;2.93;;;2.10;;
3006;SDS011;1513;47.650;10.720;2022-12-20T00:56:11;5.10;;;2.73;;
3006;SDS011;1513;47.650;10.720;2022-12-20T00:58:38;5.50;;;2.77;;
3006;SDS011;1513;47.650;10.720;2022-12-20T01:01:12;13.27;;;5.50;;
3006;SDS011;1513;47.650;10.720;2022-12-20T01:03:47;23.57;;;9.20;;
3006;SDS011;1513;47.650;10.720;2022-12-20T01:06:14;16.60;;;7.17;;
3006;SDS011;1513;47.650;10.720;2022-12-20T01:08:40;19.60;;;8.33;;
3006;SDS011;1513;47.650;10.720;2022-12-20T01:11:07;17.20;;;6.80;;
3006;SDS011;1513;47.650;10.720;2022-12-20T01:13:40;12.30;;;6.03;;
3006;SDS011;1513;47.650;10.720;2022-12-20T01:16:11;8.47;;;5.30;;
3006;SDS011;1513;47.650;10.720;2022-12-20T01:18:41;10.63;;;5.23;;
3006;SDS011;1513;47.650;10.720;2022-12-20T01:21:08;8.50;;;4.93;;
3006;SDS011;1513;47.650;10.720;2022-12-20T01:23:37;9.10;;;4.93;;
3006;SDS011;1513;47.650;10.720;2022-12-20T01:26:05;14.93;;;5.77;;
3006;SDS011;1513;47.650;10.720;2022-12-20T01:28:37;10.97;;;5.00;;
3006;SDS011;1513;47.650;10.720;2022-12-20T01:31:05;6.93;;;4.40;;
3006;SDS011;1513;47.650;10.720;2022-12-20T01:33:33;7.17;;;4.83;;
3006;SDS011;1513;47.650;10.720;2022-12-20T01:36:22;7.13;;;3.90;;
3006;SDS011;1513;47.650;10.720;2022-12-20T01:38:49;8.43;;;4.43;;
3006;SDS011;1513;47.650;10.720;2022-12-20T01:41:16;7.90;;;4.77;;
3006;SDS011;1513;47.650;10.720;2022-12-20T01:43:49;8.87;;;4.90;;
3006;SDS011;1513;47.650;10.720;2022-12-20T01:46:20;7.43;;;4.80;;
3006;SDS011;1513;47.650;10.720;2022-12-20T01:48:51;10.87;;;4.60;;
3006;SDS011;1513;47.650;10.720;2022-12-20T01:51:26;7.83;;;4.23;;
3006;SDS011;1513;47.650;10.720;2022-12-20T01:53:59;6.57;;;3.60;;
3006;SDS011;1513;47.650;10.720;2022-12-20T01:56:39;9.00;;;4.77;;
3006;SDS011;1513;47.650;10.720;2022-12-20T01:59:11;7.87;;;4.43;;
3006;SDS011;1513;47.650;10.720;2022-12-20T02:01:38;5.67;;;3.90;;
3006;SDS011;1513;47.650;10.720;2022-12-20T02:04:06;8.60;;;4.53;;
3006;SDS011;1513;47.650;10.720;2022-12-20T02:06:32;8.67;;;4.10;;
3006;SDS011;1513;47.650;10.720;2022-12-20T02:08:59;9.97;;;5.23;;
3006;SDS011;1513;47.650;10.720;2022-12-20T02:26:48;6.93;;;4.57;;
3006;SDS011;1513;47.650;10.720;2022-12-20T02:29:59;8.53;;;4.33;;
3006;SDS011;1513;47.650;10.720;2022-12-20T02:35:22;7.93;;;4.10;;
3006;SDS011;1513;47.650;10.720;2022-12-20T02:37:52;5.17;;;3.67;;
3006;SDS011;1513;47.650;10.720;2022-12-20T02:40:25;7.97;;;3.60;;
3006;SDS011;1513;47.650;10.720;2022-12-20T02:43:05;3.50;;;2.40;;
3006;SDS011;1513;47.650;10.720;2022-12-20T02:45:54;4.63;;;3.03;;
3006;SDS011;1513;47.650;10.720;2022-12-20T02:48:22;4.40;;;3.07;;
3006;SDS011;1513;47.650;10.720;2022-12-20T02:50:51;8.57;;;3.23;;
3006;SDS011;1513;47.650;10.720;2022-12-20T02:53:21;6.93;;;4.20;;
3006;SDS011;1513;47.650;10.720;2022-12-20T02:58:50;7.57;;;4.23;;
3006;SDS011;1513;47.650;10.720;2022-12-20T03:01:25;8.77;;;4.17;;
3006;SDS011;1513;47.650;10.720;2022-12-20T03:03:56;6.47;;;4.27;;
3006;SDS011;1513;47.650;10.720;2022-12-20T03:06:23;6.70;;;3.70;;
3006;SDS011;1513;47.650;10.720;2022-12-20T03:08:49;7.50;;;4.10;;
3006;SDS011;1513;47.650;10.720;2022-12-20T03:11:15;11.23;;;4.07;;
3006;SDS011;1513;47.650;10.720;2022-12-20T03:13:41;7.50;;;3.20;;
3006;SDS011;1513;47.650;10.720;2022-12-20T03:16:08;5.30;;;2.83;;
3006;SDS011;1513;47.650;10.720;2022-12-20T03:18:35;5.53;;;2.80;;
3006;SDS011;1513;47.650;10.720;2022-12-20T03:21:02;4.20;;;3.00;;
3006;SDS011;1513;47.650;10.720;2022-12-20T03:23:28;3.50;;;2.83;;
3006;SDS011;1513;47.650;10.720;2022-12-20T03:25:54;3.90;;;2.80;;
3006;SDS011;1513;47.650;10.720;2022-12-20T03:28:37;2.70;;;2.47;;
3006;SDS011;1513;47.650;10.720;2022-12-20T03:31:05;3.80;;;2.43;;
3006;SDS011;1513;47.650;10.720;2022-12-20T03:33:37;3.20;;;2.20;;
3006;SDS011;1513;47.650;10.720;2022-12-20T03:36:05;2.03;;;1.83;;
3006;SDS011;1513;47.650;10.720;2022-12-20T03:38:31;3.80;;;2.03;;
3006;SDS011;1513;47.650;10.720;2022-12-20T03:40:57;3.63;;;2.50;;
3006;SDS011;1513;47.650;10.720;2022-12-20T03:43:23;3.87;;;2.37;;
3006;SDS011;1513;47.650;10.720;2022-12-20T03:45:49;3.90;;;2.00;;
3006;SDS011;1513;47.650;10.720;2022-12-20T03:48:16;2.30;;;2.10;;
3006;SDS011;1513;47.650;10.720;2022-12-20T03:50:42;3.23;;;2.13;;
3006;SDS011;1513;47.650;10.720;2022-12-20T03:53:08;4.03;;;2.50;;
3006;SDS011;1513;47.650;10.720;2022-12-20T03:55:34;4.30;;;2.27;;
3006;SDS011;1513;47.650;10.720;2022-12-20T03:58:00;3.27;;;2.30;;
3006;SDS011;1513;47.650;10.720;2022-12-20T04:00:30;2.53;;;1.90;;
3006;SDS011;1513;47.650;10.720;2022-12-20T04:03:15;2.90;;;1.90;;
3006;SDS011;1513;47.650;10.720;2022-12-20T04:05:41;2.83;;;2.30;;
3006;SDS011;1513;47.650;10.720;2022-12-20T04:08:06;3.47;;;2.17;;
3006;SDS011;1513;47.650;10.720;2022-12-20T04:10:32;3.50;;;2.50;;
3006;SDS011;1513;47.650;10.720;2022-12-20T04:13:18;3.20;;;2.27;;
3006;SDS011;1513;47.650;10.720;2022-12-20T04:15:44;2.40;;;2.07;;
3006;SDS011;1513;47.650;10.720;2022-12-20T04:18:11;3.40;;;2.67;;
3006;SDS011;1513;47.650;10.720;2022-12-20T04:20:38;5.67;;;3.47;;
3006;SDS011;1513;47.650;10.720;2022-12-20T04:23:14;28.47;;;9.67;;
3006;SDS011;1513;47.650;10.720;2022-12-20T04:25:40;14.43;;;6.93;;
3006;SDS011;1513;47.650;10.720;2022-12-20T04:28:06;8.23;;;3.33;;
3006;SDS011;1513;47.650;10.720;2022-12-20T04:30:31;2.73;;;2.50;;
3006;SDS011;1513;47.650;10.720;2022-12-20T04:32:58;2.57;;;2.13;;
3006;SDS011;1513;47.650;10.720;2022-12-20T04:35:25;7.10;;;2.47;;
3006;SDS011;1513;47.650;10.720;2022-12-20T04:37:51;6.37;;;3.50;;
3006;SDS011;1513;47.650;10.720;2022-12-20T04:40:17;4.23;;;2.70;;
3006;SDS011;1513;47.650;10.720;2022-12-20T04:42:46;3.63;;;2.77;;
3006;SDS011;1513;47.650;10.720;2022-12-20T04:45:13;3.33;;;2.30;;
3006;SDS011;1513;47.650;10.720;2022-12-20T04:47:39;3.47;;;2.70;;
3006;SDS011;1513;47.650;10.720;2022-12-20T04:50:07;5.27;;;2.50;;
3006;SDS011;1513;47.650;10.720;2022-12-20T04:52:33;5.80;;;2.40;;
3006;SDS011;1513;47.650;10.720;2022-12-20T04:55:17;3.23;;;2.40;;
3006;SDS011;1513;47.650;10.720;2022-12-20T04:57:43;3.87;;;2.50;;
3006;SDS011;1513;47.650;10.720;2022-12-20T05:00:09;5.47;;;3.43;;
3006;SDS011;1513;47.650;10.720;2022-12-20T05:02:41;6.90;;;4.30;;
3006;SDS011;1513;47.650;10.720;2022-12-20T05:05:11;5.70;;;3.90;;
3006;SDS011;1513;47.650;10.720;2022-12-20T05:07:44;5.87;;;3.10;;
3006;SDS011;1513;47.650;10.720;2022-12-20T05:10:10;5.97;;;2.80;;
3006;SDS011;1513;47.650;10.720;2022-12-20T05:12:38;2.97;;;2.17;;
3006;SDS011;1513;47.650;10.720;2022-12-20T05:15:04;4.27;;;2.47;;
3006;SDS011;1513;47.650;10.720;2022-12-20T05:17:32;3.10;;;2.17;;
3006;SDS011;1513;47.650;10.720;2022-12-20T05:19:59;6.83;;;4.27;;
3006;SDS011;1513;47.650;10.720;2022-12-20T05:22:25;5.73;;;3.77;;
3006;SDS011;1513;47.650;10.720;2022-12-20T05:25:11;7.73;;;4.50;;
3006;SDS011;1513;47.650;10.720;2022-12-20T05:28:00;0.80;;;0.80;;
3006;SDS011;1513;47.650;10.720;2022-12-20T05:30:30;1.70;;;1.20;;
3006;SDS011;1513;47.650;10.720;2022-12-20T05:32:56;5.67;;;1.27;;
3006;SDS011;1513;47.650;10.720;2022-12-20T05:35:22;0.80;;;0.80;;
3006;SDS011;1513;47.650;10.720;2022-12-20T05:37:54;1.13;;;1.03;;
3006;SDS011;1513;47.650;10.720;2022-12-20T05:40:20;1.87;;;1.33;;
3006;SDS011;1513;47.650;10.720;2022-12-20T05:42:47;4.27;;;3.80;;
3006;SDS011;1513;47.650;10.720;2022-12-20T05:45:14;7.43;;;4.90;;
3006;SDS011;1513;47.650;10.720;2022-12-20T05:47:48;6.13;;;4.80;;
3006;SDS011;1513;47.650;10.720;2022-12-20T05:50:14;7.20;;;5.23;;
3006;SDS011;1513;47.650;10.720;2022-12-20T05:53:01;7.23;;;4.30;;
3006;SDS011;1513;47.650;10.720;2022-12-20T05:55:27;10.80;;;5.67;;
3006;SDS011;1513;47.650;10.720;2022-12-20T05:57:53;8.10;;;5.00;;
3006;SDS011;1513;47.650;10.720;2022-12-20T06:00:27;8.83;;;4.53;;
3006;SDS011;1513;47.650;10.720;2022-12-20T06:02:53;6.67;;;4.27;;
3006;SDS011;1513;47.650;10.720;2022-12-20T06:05:19;6.87;;;4.90;;
3006;SDS011;1513;47.650;10.720;2022-12-20T06:07:46;13.17;;;5.37;;
3006;SDS011;1513;47.650;10.720;2022-12-20T06:10:13;10.23;;;6.30;;
3006;SDS011;1513;47.650;10.720;2022-12-20T06:12:59;7.33;;;5.33;;
3006;SDS011;1513;47.650;10.720;2022-12-20T06:15:28;11.83;;;6.03;;
3006;SDS011;1513;47.650;10.720;2022-12-20T06:17:56;6.43;;;4.70;;
3006;SDS011;1513;47.650;10.720;2022-12-20T06:20:22;12.80;;;7.50;;
3006;SDS011;1513;47.650;10.720;2022-12-20T06:22:48;12.50;;;7.27;;
3006;SDS011;1513;47.650;10.720;2022-12-20T06:25:15;10.77;;;6.13;;
3006;SDS011;1513;47.650;10.720;2022-12-20T06:27:41;11.50;;;6.13;;
3006;SDS011;1513;47.650;10.720;2022-12-20T06:30:12;11.83;;;6.80;;
3006;SDS011;1513;47.650;10.720;2022-12-20T06:33:01;13.47;;;7.70;;
3006;SDS011;1513;47.650;10.720;2022-12-20T06:35:28;11.63;;;7.27;;
3006;SDS011;1513;47.650;10.720;2022-12-20T06:37:55;12.20;;;7.40;;
3006;SDS011;1513;47.650;10.720;2022-12-20T06:40:22;19.37;;;11.57;;
3006;SDS011;1513;47.650;10.720;2022-12-20T06:42:48;20.13;;;12.67;;
3006;SDS011;1513;47.650;10.720;2022-12-20T06:45:20;18.93;;;10.80;;
3006;SDS011;1513;47.650;10.720;2022-12-20T06:47:46;15.53;;;8.97;;
3006;SDS011;1513;47.650;10.720;2022-12-20T06:50:12;20.47;;;11.40;;
3006;SDS011;1513;47.650;10.720;2022-12-20T06:52:39;20.10;;;12.60;;
3006;SDS011;1513;47.650;10.720;2022-12-20T06:55:05;24.43;;;13.00;;
3006;SDS011;1513;47.650;10.720;2022-12-20T06:57:35;21.90;;;12.73;;
3006;SDS011;1513;47.650;10.720;2022-12-20T07:00:01;17.50;;;11.30;;
3006;SDS011;1513;47.650;10.720;2022-12-20T07:02:28;18.50;;;11.40;;
3006;SDS011;1513;47.650;10.720;2022-12-20T07:04:54;21.67;;;13.20;;
3006;SDS011;1513;47.650;10.720;2022-12-20T07:07:20;20.00;;;11.17;;
3006;SDS011;1513;47.650;10.720;2022-12-20T07:09:46;22.70;;;11.67;;
3006;SDS011;1513;47.650;10.720;2022-12-20T07:12:12;18.73;;;11.03;;
3006;SDS011;1513;47.650;10.720;2022-12-20T07:14:38;24.47;;;12.43;;
3006;SDS011;1513;47.650;10.720;2022-12-20T07:17:04;21.93;;;12.40;;
3006;SDS011;1513;47.650;10.720;2022-12-20T07:19:31;25.93;;;13.17;;
3006;SDS011;1513;47.650;10.720;2022-12-20T07:21:58;21.50;;;13.57;;
3006;SDS011;1513;47.650;10.720;2022-12-20T07:24:24;22.37;;;13.07;;
3006;SDS011;1513;47.650;10.720;2022-12-20T07:26:50;24.43;;;13.20;;
3006;SDS011;1513;47.650;10.720;2022-12-20T07:29:15;22.93;;;14.53;;
3006;SDS011;1513;47.650;10.720;2022-12-20T07:31:41;27.13;;;13.70;;
3006;SDS011;1513;47.650;10.720;2022-12-20T07:34:07;27.00;;;13.97;;
3006;SDS011;1513;47.650;10.720;2022-12-20T07:36:33;25.17;;;13.23;;
3006;SDS011;1513;47.650;10.720;2022-12-20T07:38:59;22.07;;;13.10;;
3006;SDS011;1513;47.650;10.720;2022-12-20T07:41:25;24.23;;;14.20;;
3006;SDS011;1513;47.650;10.720;2022-12-20T07:43:51;33.10;;;16.70;;
3006;SDS011;1513;47.650;10.720;2022-12-20T07:46:17;46.90;;;22.00;;
3006;SDS011;1513;47.650;10.720;2022-12-20T07:48:43;62.20;;;27.07;;
3006;SDS011;1513;47.650;10.720;2022-12-20T07:51:11;54.03;;;25.30;;
3006;SDS011;1513;47.650;10.720;2022-12-20T07:53:47;66.20;;;28.83;;
3006;SDS011;1513;47.650;10.720;2022-12-20T07:56:18;79.23;;;34.80;;
3006;SDS011;1513;47.650;10.720;2022-12-20T07:58:46;102.87;;;42.40;;
3006;SDS011;1513;47.650;10.720;2022-12-20T08:01:15;53.37;;;23.63;;
3006;SDS011;1513;47.650;10.720;2022-12-20T08:03:48;42.23;;;19.53;;
3006;SDS011;1513;47.650;10.720;2022-12-20T08:06:17;42.77;;;20.50;;
3006;SDS011;1513;47.650;10.720;2022-12-20T08:08:48;112.47;;;39.13;;
3006;SDS011;1513;47.650;10.720;2022-12-20T08:11:18;203.50;;;64.40;;
3006;SDS011;1513;47.650;10.720;2022-12-20T08:13:47;128.97;;;42.63;;
3006;SDS011;1513;47.650;10.720;2022-12-20T08:16:15;104.30;;;37.10;;
3006;SDS011;1513;47.650;10.720;2022-12-20T08:18:41;87.27;;;34.47;;
3006;SDS011;1513;47.650;10.720;2022-12-20T08:21:06;86.03;;;33.57;;
3006;SDS011;1513;47.650;10.720;2022-12-20T08:23:32;64.93;;;25.73;;
3006;SDS011;1513;47.650;10.720;2022-12-20T08:26:02;31.40;;;12.10;;
3006;SDS011;1513;47.650;10.720;2022-12-20T08:28:28;32.10;;;15.00;;
3006;SDS011;1513;47.650;10.720;2022-12-20T08:30:59;33.27;;;15.40;;
3006;SDS011;1513;47.650;10.720;2022-12-20T08:33:29;42.07;;;20.80;;
3006;SDS011;1513;47.650;10.720;2022-12-20T08:35:56;30.90;;;14.20;;
3006;SDS011;1513;47.650;10.720;2022-12-20T08:38:25;62.20;;;30.47;;
3006;SDS011;1513;47.650;10.720;2022-12-20T08:40:52;76.40;;;35.90;;
3006;SDS011;1513;47.650;10.720;2022-12-20T08:43:18;111.10;;;42.43;;
3006;SDS011;1513;47.650;10.720;2022-12-20T08:45:44;89.27;;;37.67;;
3006;SDS011;1513;47.650;10.720;2022-12-20T08:48:16;54.77;;;25.47;;
3006;SDS011;1513;47.650;10.720;2022-12-20T08:50:42;42.77;;;21.80;;
3006;SDS011;1513;47.650;10.720;2022-12-20T08:53:07;24.17;;;12.57;;
3006;SDS011;1513;47.650;10.720;2022-12-20T08:55:33;19.27;;;11.13;;
3006;SDS011;1513;47.650;10.720;2022-12-20T08:57:59;17.03;;;8.90;;
3006;SDS011;1513;47.650;10.720;2022-12-20T09:00:25;9.30;;;5.43;;
3006;SDS011;1513;47.650;10.720;2022-12-20T09:02:52;12.33;;;6.93;;
3006;SDS011;1513;47.650;10.720;2022-12-20T09:05:19;27.50;;;14.60;;
3006;SDS011;1513;47.650;10.720;2022-12-20T09:07:45;14.33;;;7.80;;
3006;SDS011;1513;47.650;10.720;2022-12-20T09:10:11;5.20;;;3.23;;
3006;SDS011;1513;47.650;10.720;2022-12-20T09:12:37;4.67;;;3.20;;
3006;SDS011;1513;47.650;10.720;2022-12-20T09:15:04;16.57;;;8.60;;
3006;SDS011;1513;47.650;10.720;2022-12-20T09:17:30;27.03;;;12.50;;
3006;SDS011;1513;47.650;10.720;2022-12-20T09:19:56;13.30;;;7.67;;
3006;SDS011;1513;47.650;10.720;2022-12-20T09:22:22;12.33;;;5.90;;
3006;SDS011;1513;47.650;10.720;2022-12-20T09:24:48;10.37;;;5.13;;
3006;SDS011;1513;47.650;10.720;2022-12-20T09:27:13;19.13;;;11.33;;
3006;SDS011;1513;47.650;10.720;2022-12-20T09:29:39;20.33;;;11.73;;
3006;SDS011;1513;47.650;10.720;2022-12-20T09:32:05;9.50;;;7.03;;
3006;SDS011;1513;47.650;10.720;2022-12-20T09:34:31;15.00;;;7.43;;
3006;SDS011;1513;47.650;10.720;2022-12-20T09:36:57;16.20;;;10.20;;
3006;SDS011;1513;47.650;10.720;2022-12-20T09:39:23;13.60;;;7.30;;
3006;SDS011;1513;47.650;10.720;2022-12-20T09:41:49;9.37;;;6.10;;
3006;SDS011;1513;47.650;10.720;2022-12-20T09:44:15;14.50;;;7.60;;
3006;SDS011;1513;47.650;10.720;2022-12-20T09:46:54;9.13;;;7.13;;
3006;SDS011;1513;47.650;10.720;2022-12-20T09:49:30;23.53;;;14.63;;
3006;SDS011;1513;47.650;10.720;2022-12-20T09:55:33;24.87;;;14.60;;
3006;SDS011;1513;47.650;10.720;2022-12-20T10:00:49;16.50;;;8.13;;
3006;SDS011;1513;47.650;10.720;2022-12-20T10:03:21;16.43;;;9.90;;
3006;SDS011;1513;47.650;10.720;2022-12-20T10:06:03;13.20;;;8.57;;
3006;SDS011;1513;47.650;10.720;2022-12-20T10:08:48;10.40;;;6.43;;
3006;SDS011;1513;47.650;10.720;2022-12-20T10:17:03;285.17;;;118.03;;
3006;SDS011;1513;47.650;10.720;2022-12-20T10:25:31;26.30;;;13.13;;
3006;SDS011;1513;47.650;10.720;2022-12-20T10:28:02;26.63;;;13.13;;
3006;SDS011;1513;47.650;10.720;2022-12-20T10:30:35;23.50;;;10.90;;
3006;SDS011;1513;47.650;10.720;2022-12-20T10:33:01;20.83;;;10.50;;
3006;SDS011;1513;47.650;10.720;2022-12-20T10:38:05;24.07;;;10.43;;
3006;SDS011;1513;47.650;10.720;2022-12-20T10:40:58;21.73;;;11.13;;
3006;SDS011;1513;47.650;10.720;2022-12-20T10:43:26;21.97;;;11.20;;
3006;SDS011;1513;47.650;10.720;2022-12-20T10:46:04;27.20;;;12.33;;
3006;SDS011;1513;47.650;10.720;2022-12-20T10:48:33;24.23;;;12.33;;
3006;SDS011;1513;47.650;10.720;2022-12-20T10:53:35;42.47;;;22.67;;
3006;SDS011;1513;47.650;10.720;2022-12-20T10:56:18;45.07;;;22.63;;
3006;SDS011;1513;47.650;10.720;2022-12-20T11:01:24;51.67;;;26.93;;
3006;SDS011;1513;47.650;10.720;2022-12-20T11:09:11;48.60;;;27.70;;
3006;SDS011;1513;47.650;10.720;2022-12-20T11:14:25;35.73;;;20.37;;
3006;SDS011;1513;47.650;10.720;2022-12-20T11:16:53;36.57;;;21.30;;
3006;SDS011;1513;47.650;10.720;2022-12-20T11:25:03;46.63;;;23.77;;
3006;SDS011;1513;47.650;10.720;2022-12-20T11:28:04;36.63;;;20.67;;
3006;SDS011;1513;47.650;10.720;2022-12-20T11:31:14;39.83;;;19.60;;
3006;SDS011;1513;47.650;10.720;2022-12-20T11:39:50;49.33;;;24.30;;
3006;SDS011;1513;47.650;10.720;2022-12-20T11:45:49;36.93;;;16.93;;
3006;SDS011;1513;47.650;10.720;2022-12-20T11:48:58;27.43;;;14.90;;
3006;SDS011;1513;47.650;10.720;2022-12-20T11:51:47;45.73;;;19.60;;
3006;SDS011;1513;47.650;10.720;2022-12-20T11:54:38;40.87;;;20.93;;
3006;SDS011;1513;47.650;10.720;2022-12-20T11:57:25;58.03;;;26.03;;
3006;SDS011;1513;47.650;10.720;2022-12-20T12:00:00;67.67;;;30.07;;
3006;SDS011;1513;47.650;10.720;2022-12-20T12:02:42;70.33;;;29.73;;
3006;SDS011;1513;47.650;10.720;2022-12-20T12:05:15;56.47;;;27.57;;
3006;SDS011;1513;47.650;10.720;2022-12-20T12:07:55;79.67;;;33.13;;
3006;SDS011;1513;47.650;10.720;2022-12-20T12:10:34;69.63;;;32.33;;
3006;SDS011;1513;47.650;10.720;2022-12-20T12:13:10;74.10;;;35.07;;
3006;SDS011;1513;47.650;10.720;2022-12-20T12:18:35;91.13;;;36.97;;
3006;SDS011;1513;47.650;10.720;2022-12-20T12:26:43;52.87;;;27.50;;
3006;SDS011;1513;47.650;10.720;2022-12-20T12:29:09;47.80;;;23.53;;
3006;SDS011;1513;47.650;10.720;2022-12-20T12:31:40;46.60;;;23.90;;
3006;SDS011;1513;47.650;10.720;2022-12-20T12:37:34;40.07;;;21.90;;
3006;SDS011;1513;47.650;10.720;2022-12-20T12:46:21;42.13;;;21.70;;
3006;SDS011;1513;47.650;10.720;2022-12-20T12:48:55;53.53;;;26.97;;
3006;SDS011;1513;47.650;10.720;2022-12-20T12:51:33;49.03;;;25.03;;
3006;SDS011;1513;47.650;10.720;2022-12-20T12:54:23;53.20;;;26.93;;
3006;SDS011;1513;47.650;10.720;2022-12-20T12:56:51;56.70;;;26.40;;
3006;SDS011;1513;47.650;10.720;2022-12-20T12:59:38;43.77;;;20.73;;
3006;SDS011;1513;47.650;10.720;2022-12-20T13:10:01;126.43;;;56.57;;
3006;SDS011;1513;47.650;10.720;2022-12-20T13:15:45;117.23;;;54.93;;
3006;SDS011;1513;47.650;10.720;2022-12-20T13:17:55;135.20;;;62.73;;
3006;SDS011;1513;47.650;10.720;2022-12-20T13:20:24;108.73;;;50.80;;
3006;SDS011;1513;47.650;10.720;2022-12-20T13:25:31;64.37;;;35.00;;
3006;SDS011;1513;47.650;10.720;2022-12-20T13:30:44;54.53;;;28.00;;
3006;SDS011;1513;47.650;10.720;2022-12-20T13:33:23;57.80;;;31.30;;
3006;SDS011;1513;47.650;10.720;2022-12-20T13:41:27;35.47;;;19.77;;
3006;SDS011;1513;47.650;10.720;2022-12-20T13:46:49;28.87;;;16.30;;
3006;SDS011;1513;47.650;10.720;2022-12-20T13:49:40;29.10;;;16.60;;
3006;SDS011;1513;47.650;10.720;2022-12-20T13:54:39;26.47;;;14.13;;
3006;SDS011;1513;47.650;10.720;2022-12-20T13:57:07;27.53;;;15.47;;
3006;SDS011;1513;47.650;10.720;2022-12-20T13:59:42;29.40;;;15.37;;
3006;SDS011;1513;47.650;10.720;2022-12-20T14:02:16;26.33;;;13.20;;
3006;SDS011;1513;47.650;10.720;2022-12-20T14:04:50;25.33;;;14.10;;
3006;SDS011;1513;47.650;10.720;2022-12-20T14:07:26;40.43;;;15.27;;
3006;SDS011;1513;47.650;10.720;2022-12-20T14:09:55;31.40;;;12.27;;
3006;SDS011;1513;47.650;10.720;2022-12-20T14:12:26;28.77;;;13.00;;
3006;SDS011;1513;47.650;10.720;2022-12-20T14:14:53;25.97;;;13.03;;
3006;SDS011;1513;47.650;10.720;2022-12-20T14:17:23;24.77;;;12.90;;
3006;SDS011;1513;47.650;10.720;2022-12-20T14:23:04;78.13;;;34.23;;
3006;SDS011;1513;47.650;10.720;2022-12-20T14:25:47;79.00;;;37.07;;
3006;SDS011;1513;47.650;10.720;2022-12-20T14:28:30;58.47;;;30.93;;
3006;SDS011;1513;47.650;10.720;2022-12-20T14:31:22;53.13;;;26.20;;
3006;SDS011;1513;47.650;10.720;2022-12-20T14:34:01;56.00;;;29.43;;
3006;SDS011;1513;47.650;10.720;2022-12-20T14:36:47;43.83;;;23.67;;
3006;SDS011;1513;47.650;10.720;2022-12-20T14:39:22;44.03;;;23.30;;
3006;SDS011;1513;47.650;10.720;2022-12-20T14:44:28;34.03;;;19.17;;
3006;SDS011;1513;47.650;10.720;2022-12-20T14:46:56;32.43;;;17.83;;
3006;SDS011;1513;47.650;10.720;2022-12-20T14:49:26;30.33;;;17.23;;
3006;SDS011;1513;47.650;10.720;2022-12-20T14:52:04;35.83;;;18.40;;
3006;SDS011;1513;47.650;10.720;2022-12-20T14:54:38;50.80;;;25.20;;
3006;SDS011;1513;47.650;10.720;2022-12-20T14:57:10;57.03;;;27.73;;
3006;SDS011;1513;47.650;10.720;2022-12-20T15:00:20;63.07;;;27.73;;
3006;SDS011;1513;47.650;10.720;2022-12-20T15:02:56;27.33;;;14.43;;
3006;SDS011;1513;47.650;10.720;2022-12-20T15:05:55;42.17;;;18.03;;
3006;SDS011;1513;47.650;10.720;2022-12-20T15:08:27;52.63;;;21.50;;
3006;SDS011;1513;47.650;10.720;2022-12-20T15:11:00;60.43;;;24.40;;
3006;SDS011;1513;47.650;10.720;2022-12-20T15:13:36;44.23;;;21.10;;
3006;SDS011;1513;47.650;10.720;2022-12-20T15:16:14;41.47;;;19.10;;
3006;SDS011;1513;47.650;10.720;2022-12-20T15:18:48;31.53;;;17.93;;
3006;SDS011;1513;47.650;10.720;2022-12-20T15:21:27;28.13;;;16.03;;
3006;SDS011;1513;47.650;10.720;2022-12-20T15:23:58;33.17;;;17.33;;
3006;SDS011;1513;47.650;10.720;2022-12-20T15:26:28;35.57;;;17.30;;
3006;SDS011;1513;47.650;10.720;2022-12-20T15:28:55;47.23;;;23.23;;
3006;SDS011;1513;47.650;10.720;2022-12-20T15:31:22;62.80;;;28.60;;
3006;SDS011;1513;47.650;10.720;2022-12-20T15:33:50;38.00;;;18.63;;
3006;SDS011;1513;47.650;10.720;2022-12-20T15:36:20;40.33;;;18.93;;
3006;SDS011;1513;47.650;10.720;2022-12-20T15:38:50;41.13;;;17.43;;
3006;SDS011;1513;47.650;10.720;2022-12-20T15:41:27;36.50;;;17.43;;
3006;SDS011;1513;47.650;10.720;2022-12-20T15:43:57;31.10;;;16.40;;
3006;SDS011;1513;47.650;10.720;2022-12-20T15:46:26;22.90;;;9.67;;
3006;SDS011;1513;47.650;10.720;2022-12-20T15:48:52;12.13;;;6.53;;
3006;SDS011;1513;47.650;10.720;2022-12-20T15:51:29;12.70;;;6.20;;
3006;SDS011;1513;47.650;10.720;2022-12-20T15:53:58;11.17;;;7.30;;
3006;SDS011;1513;47.650;10.720;2022-12-20T15:56:28;13.90;;;7.40;;
3006;SDS011;1513;47.650;10.720;2022-12-20T15:58:54;14.90;;;7.67;;
3006;SDS011;1513;47.650;10.720;2022-12-20T16:01:28;15.43;;;9.00;;
3006;SDS011;1513;47.650;10.720;2022-12-20T16:04:00;19.40;;;10.87;;
3006;SDS011;1513;47.650;10.720;2022-12-20T16:06:26;24.80;;;11.80;;
3006;SDS011;1513;47.650;10.720;2022-12-20T16:08:52;22.60;;;11.57;;
3006;SDS011;1513;47.650;10.720;2022-12-20T16:11:19;29.53;;;12.67;;
3006;SDS011;1513;47.650;10.720;2022-12-20T16:13:48;42.20;;;16.70;;
3006;SDS011;1513;47.650;10.720;2022-12-20T16:16:16;51.83;;;19.20;;
3006;SDS011;1513;47.650;10.720;2022-12-20T16:18:44;41.50;;;17.20;;
3006;SDS011;1513;47.650;10.720;2022-12-20T16:21:32;91.03;;;32.40;;
3006;SDS011;1513;47.650;10.720;2022-12-20T16:24:00;71.67;;;27.00;;
3006;SDS011;1513;47.650;10.720;2022-12-20T16:26:26;67.10;;;25.17;;
3006;SDS011;1513;47.650;10.720;2022-12-20T16:28:53;40.70;;;20.33;;
3006;SDS011;1513;47.650;10.720;2022-12-20T16:31:24;28.93;;;15.73;;
3006;SDS011;1513;47.650;10.720;2022-12-20T16:33:56;31.40;;;16.60;;
3006;SDS011;1513;47.650;10.720;2022-12-20T16:36:23;27.43;;;15.23;;
3006;SDS011;1513;47.650;10.720;2022-12-20T16:38:50;25.93;;;15.90;;
3006;SDS011;1513;47.650;10.720;2022-12-20T16:41:23;24.20;;;13.93;;
3006;SDS011;1513;47.650;10.720;2022-12-20T16:43:52;23.97;;;14.70;;
3006;SDS011;1513;47.650;10.720;2022-12-20T16:46:20;23.97;;;12.70;;
3006;SDS011;1513;47.650;10.720;2022-12-20T16:48:50;23.03;;;13.00;;
3006;SDS011;1513;47.650;10.720;2022-12-20T16:51:21;27.07;;;16.17;;
3006;SDS011;1513;47.650;10.720;2022-12-20T16:54:05;33.83;;;16.67;;
3006;SDS011;1513;47.650;10.720;2022-12-20T16:56:38;27.47;;;14.67;;
3006;SDS011;1513;47.650;10.720;2022-12-20T16:59:04;23.87;;;14.40;;
3006;SDS011;1513;47.650;10.720;2022-12-20T17:01:32;33.72;;;19.95;;
3006;SDS011;1513;47.650;10.720;2022-12-20T17:04:01;47.70;;;23.10;;
3006;SDS011;1513;47.650;10.720;2022-12-20T17:06:27;307.27;;;104.30;;
3006;SDS011;1513;47.650;10.720;2022-12-20T17:08:53;250.40;;;85.13;;